Time;durP1;ratioP1;P1;durP2;ratioP2;P2;SDS_P1;SDS_P2;PMS_P1;PMS_P2;Temp;Humidity;BMP_temperature;BMP_pressure;BME280_temperature;BME280_humidity;BME280_pressure;Samples;Min_cycle;Max_cycle;Signal;HPM_P1;HPM_P2
2022/09/19 00:01:41;;;;;;;13.27;6.57;;;7.70;99.90;;;;;;4377123;28;659292;-85
2022/09/19 00:04:30;;;;;;;14.70;5.47;;;7.70;99.90;;;;;;4411684;28;659154;-85
2022/09/19 00:07:17;;;;;;;12.30;5.20;;;7.70;99.90;;;;;;4388055;28;658384;-83
2022/09/19 00:10:06;;;;;;;12.40;5.60;;;7.70;99.90;;;;;;4408639;28;658551;-84
2022/09/19 00:12:55;;;;;;;9.53;4.73;;;7.70;99.90;;;;;;4386998;28;660066;-84
2022/09/19 00:15:48;;;;;;;8.00;5.23;;;7.70;99.90;;;;;;4384564;28;658453;-84
2022/09/19 00:18:35;;;;;;;13.57;5.77;;;7.70;99.90;;;;;;4385852;28;657554;-85
2022/09/19 00:21:23;;;;;;;10.73;6.30;;;7.70;99.90;;;;;;4407160;28;659919;-84
2022/09/19 00:27:18;;;;;;;9.47;6.20;;;7.70;99.90;;;;;;4387695;28;659573;-85
2022/09/19 00:30:06;;;;;;;12.87;6.13;;;7.70;99.90;;;;;;4396537;28;657892;-85
2022/09/19 00:32:55;;;;;;;8.17;5.43;;;7.70;99.90;;;;;;4405392;28;659341;-86
2022/09/19 00:35:42;;;;;;;9.40;5.67;;;7.60;99.90;;;;;;4383044;28;659272;-85
2022/09/19 00:38:29;;;;;;;11.17;5.60;;;7.60;99.90;;;;;;4412152;28;658950;-86
2022/09/19 00:41:17;;;;;;;6.93;4.70;;;7.50;99.90;;;;;;4384278;28;659359;-86
2022/09/19 00:44:06;;;;;;;7.47;4.80;;;7.60;99.90;;;;;;4411764;28;657272;-85
2022/09/19 00:46:55;;;;;;;8.03;5.00;;;7.40;99.90;;;;;;4389747;28;658473;-86
2022/09/19 00:49:45;;;;;;;7.10;4.23;;;7.40;99.90;;;;;;4385602;28;658386;-85
2022/09/19 00:52:45;;;;;;;9.07;4.87;;;7.40;99.90;;;;;;4386954;28;658462;-84
2022/09/19 00:55:32;;;;;;;6.27;4.90;;;7.40;99.90;;;;;;4385012;28;658268;-85
2022/09/19 00:58:21;;;;;;;8.90;5.37;;;7.30;99.90;;;;;;4410371;28;657424;-85
2022/09/19 01:01:09;;;;;;;11.30;5.00;;;7.30;99.90;;;;;;4390081;28;657506;-85
2022/09/19 01:03:56;;;;;;;10.67;6.07;;;7.40;99.90;;;;;;4386578;28;658228;-86
2022/09/19 01:06:48;;;;;;;8.23;5.53;;;7.40;99.90;;;;;;4409134;28;658753;-85
2022/09/19 01:09:41;;;;;;;13.00;5.80;;;7.30;99.90;;;;;;4391271;28;658035;-87
2022/09/19 01:12:37;;;;;;;10.57;6.63;;;7.30;99.90;;;;;;4385598;28;659107;-85
2022/09/19 01:15:30;;;;;;;8.37;5.50;;;7.30;99.90;;;;;;4384786;28;659146;-86
2022/09/19 01:18:21;;;;;;;6.37;4.60;;;7.30;99.90;;;;;;4387648;28;657505;-84
2022/09/19 01:24:43;;;;;;;6.53;4.33;;;7.30;99.90;;;;;;4386761;28;659030;-85
2022/09/19 01:28:09;;;;;;;5.87;4.33;;;7.30;99.90;;;;;;4386358;28;657871;-85
2022/09/19 01:34:02;;;;;;;3.83;2.87;;;7.10;99.90;;;;;;4388875;28;657670;-84
2022/09/19 01:36:52;;;;;;;9.77;4.30;;;7.10;99.90;;;;;;4391511;28;657936;-85
2022/09/19 01:39:40;;;;;;;9.00;4.90;;;7.00;99.90;;;;;;4391420;28;657741;-86
2022/09/19 01:42:27;;;;;;;7.07;4.00;;;7.00;99.90;;;;;;4387835;28;657980;-85
2022/09/19 01:45:16;;;;;;;8.27;4.80;;;7.00;99.90;;;;;;4407226;28;657881;-85
2022/09/19 01:48:10;;;;;;;7.40;4.70;;;6.90;99.90;;;;;;4402897;28;657656;-85
2022/09/19 01:51:16;;;;;;;7.03;4.07;;;6.90;99.90;;;;;;4389607;28;657882;-85
2022/09/19 01:54:13;;;;;;;8.57;4.13;;;6.90;99.90;;;;;;4393741;28;658047;-86
2022/09/19 01:57:06;;;;;;;6.40;4.30;;;6.90;99.90;;;;;;4389180;28;658414;-85
2022/09/19 02:00:02;;;;;;;6.73;3.60;;;6.90;99.90;;;;;;4387907;28;657708;-87
2022/09/19 02:02:57;;;;;;;7.67;4.07;;;6.80;99.90;;;;;;4392355;28;658115;-85
2022/09/19 02:05:47;;;;;;;6.57;4.23;;;6.90;99.90;;;;;;4395500;28;658077;-85
2022/09/19 02:08:37;;;;;;;6.77;4.23;;;6.70;99.90;;;;;;4387104;28;657657;-86
2022/09/19 02:11:26;;;;;;;7.50;4.47;;;6.70;99.90;;;;;;4405052;28;657686;-85
2022/09/19 02:14:16;;;;;;;6.80;4.23;;;6.80;99.90;;;;;;4407335;28;657833;-86
2022/09/19 02:17:06;;;;;;;7.50;4.63;;;6.80;99.90;;;;;;4386269;28;658193;-86
2022/09/19 02:19:55;;;;;;;7.27;4.50;;;6.80;99.90;;;;;;4384971;28;657744;-86
2022/09/19 02:22:46;;;;;;;7.33;4.40;;;6.80;99.90;;;;;;4384278;28;657853;-86
2022/09/19 02:25:34;;;;;;;7.30;4.30;;;6.80;99.90;;;;;;4390907;28;657799;-86
2022/09/19 02:28:22;;;;;;;8.37;4.67;;;6.80;99.90;;;;;;4391201;28;658334;-85
2022/09/19 02:31:11;;;;;;;9.10;4.57;;;6.80;99.90;;;;;;4401451;28;657628;-85
2022/09/19 02:34:00;;;;;;;6.57;4.88;;;6.80;99.90;;;;;;4409114;28;657560;-86
2022/09/19 02:36:53;;;;;;;8.57;4.83;;;6.90;99.90;;;;;;4393682;28;658073;-86
2022/09/19 02:39:43;;;;;;;10.30;5.40;;;7.00;99.90;;;;;;4369870;28;657943;-86
2022/09/19 02:42:33;;;;;;;11.33;5.80;;;7.00;99.90;;;;;;4395784;28;658632;-86
2022/09/19 02:45:25;;;;;;;11.30;7.00;;;6.90;99.90;;;;;;4389317;28;658739;-85
2022/09/19 02:48:14;;;;;;;12.57;7.20;;;6.90;99.90;;;;;;4392031;28;658741;-85
2022/09/19 02:51:04;;;;;;;11.07;6.63;;;6.90;99.90;;;;;;4385990;28;659078;-86
2022/09/19 02:53:54;;;;;;;12.27;6.57;;;6.90;99.90;;;;;;4389714;28;658768;-86
2022/09/19 02:56:41;;;;;;;12.57;7.07;;;6.90;99.90;;;;;;4386019;28;658978;-86
2022/09/19 02:59:29;;;;;;;15.83;7.50;;;6.90;99.90;;;;;;4411561;28;659492;-85
2022/09/19 03:02:18;;;;;;;15.37;8.30;;;6.90;99.90;;;;;;4393630;28;658551;-86
2022/09/19 03:05:08;;;;;;;13.83;7.93;;;6.90;99.90;;;;;;4387517;28;658384;-86
2022/09/19 03:07:57;;;;;;;12.53;7.70;;;6.90;99.90;;;;;;4387242;28;658880;-87
2022/09/19 03:10:48;;;;;;;22.23;9.93;;;6.90;99.90;;;;;;4412051;28;659131;-86
2022/09/19 03:13:36;;;;;;;16.70;9.27;;;6.90;99.90;;;;;;4397578;28;659484;-86
2022/09/19 03:16:25;;;;;;;20.83;9.60;;;6.90;99.90;;;;;;4409408;28;658992;-86
2022/09/19 03:19:12;;;;;;;15.83;9.47;;;6.90;99.90;;;;;;4388574;28;658898;-85
2022/09/19 03:21:59;;;;;;;17.67;9.53;;;6.90;99.90;;;;;;4410536;28;658722;-85
2022/09/19 03:24:47;;;;;;;20.17;10.73;;;6.90;99.90;;;;;;4389446;28;659270;-86
2022/09/19 03:27:36;;;;;;;19.07;9.27;;;6.90;99.90;;;;;;4413966;28;659755;-85
2022/09/19 03:30:24;;;;;;;14.80;8.87;;;7.00;99.90;;;;;;4388860;28;658809;-85
2022/09/19 03:33:16;;;;;;;18.20;9.20;;;7.00;99.90;;;;;;4383828;28;658806;-85
2022/09/19 03:36:07;;;;;;;17.97;8.47;;;7.00;99.90;;;;;;4387874;28;658857;-87
2022/09/19 03:38:55;;;;;;;16.50;9.00;;;7.00;99.90;;;;;;4409830;28;658776;-86
2022/09/19 03:41:43;;;;;;;15.63;9.30;;;6.90;99.90;;;;;;4411734;28;658572;-86
2022/09/19 03:44:31;;;;;;;19.00;10.43;;;6.90;99.90;;;;;;4389217;28;659251;-86
2022/09/19 03:47:21;;;;;;;20.80;10.30;;;6.80;99.90;;;;;;4406891;28;660553;-86
2022/09/19 03:50:08;;;;;;;18.77;10.27;;;6.80;99.90;;;;;;4388471;28;660456;-85
2022/09/19 03:52:58;;;;;;;17.50;9.43;;;6.70;99.90;;;;;;4385121;28;660135;-86
2022/09/19 03:55:45;;;;;;;21.70;10.57;;;6.70;99.90;;;;;;4388429;28;658929;-88
2022/09/19 03:58:35;;;;;;;18.97;8.57;;;6.80;99.90;;;;;;4404035;28;660373;-86
2022/09/19 04:01:23;;;;;;;20.73;10.73;;;6.70;99.90;;;;;;4388015;28;659367;-86
2022/09/19 04:04:11;;;;;;;25.97;11.67;;;6.70;99.90;;;;;;4386001;28;659884;-86
2022/09/19 04:06:58;;;;;;;23.97;10.60;;;6.70;99.90;;;;;;4405073;28;660480;-86
2022/09/19 04:09:45;;;;;;;25.05;11.70;;;6.60;99.90;;;;;;4384173;28;660066;-86
2022/09/19 04:12:33;;;;;;;24.20;11.00;;;6.60;99.90;;;;;;4410097;28;659612;-85
2022/09/19 04:15:20;;;;;;;23.77;11.50;;;6.70;99.90;;;;;;4387612;28;659503;-86
2022/09/19 04:18:09;;;;;;;25.97;11.50;;;6.70;99.90;;;;;;4408385;28;660054;-86
2022/09/19 04:20:56;;;;;;;23.43;11.93;;;6.70;99.90;;;;;;4390413;28;660456;-86
2022/09/19 04:23:43;;;;;;;19.80;11.13;;;6.70;99.90;;;;;;4407292;28;660264;-86
2022/09/19 04:26:30;;;;;;;18.57;9.53;;;6.60;99.90;;;;;;4386272;28;660360;-86
2022/09/19 04:29:18;;;;;;;22.10;10.87;;;6.70;99.90;;;;;;4411993;28;658627;-86
2022/09/19 04:32:05;;;;;;;22.13;11.43;;;6.70;99.90;;;;;;4388173;28;659566;-86
2022/09/19 04:34:55;;;;;;;24.77;11.17;;;6.60;99.90;;;;;;4414963;28;659725;-86
2022/09/19 04:37:42;;;;;;;26.97;12.60;;;6.60;99.90;;;;;;4379897;28;660439;-85
2022/09/19 04:40:29;;;;;;;23.90;12.07;;;6.60;99.90;;;;;;4410521;28;660186;-86
2022/09/19 04:43:18;;;;;;;30.60;14.60;;;6.60;99.90;;;;;;4388465;28;659621;-86
2022/09/19 04:46:06;;;;;;;32.80;14.67;;;6.60;99.90;;;;;;4392361;28;659418;-87
2022/09/19 04:48:54;;;;;;;36.17;14.30;;;6.60;99.90;;;;;;4408131;28;660201;-84
2022/09/19 04:51:42;;;;;;;26.00;13.60;;;6.60;99.90;;;;;;4390019;28;659930;-84
2022/09/19 04:54:35;;;;;;;33.47;16.30;;;6.80;99.90;;;;;;4406026;28;659532;-86
2022/09/19 04:57:27;;;;;;;28.37;16.07;;;6.70;99.90;;;;;;4390798;28;659985;-85
2022/09/19 05:00:14;;;;;;;27.03;14.80;;;6.70;99.90;;;;;;4390537;28;660113;-86
2022/09/19 05:03:02;;;;;;;33.93;17.63;;;6.70;99.90;;;;;;4386819;28;659948;-86
2022/09/19 05:05:51;;;;;;;37.27;17.53;;;6.70;99.90;;;;;;4412850;28;660218;-85
2022/09/19 05:08:40;;;;;;;33.57;16.50;;;6.70;99.90;;;;;;4389627;28;660097;-85
2022/09/19 05:11:27;;;;;;;35.53;18.00;;;6.80;99.90;;;;;;4384687;28;661142;-85
2022/09/19 05:14:14;;;;;;;37.20;18.93;;;6.80;99.90;;;;;;4409359;28;660014;-84
2022/09/19 05:17:01;;;;;;;39.23;17.57;;;6.80;99.90;;;;;;4388349;28;660154;-85
2022/09/19 05:19:48;;;;;;;41.83;19.33;;;6.80;99.90;;;;;;4409904;28;660567;-86
2022/09/19 05:22:35;;;;;;;33.77;17.97;;;6.80;99.90;;;;;;4388715;28;660029;-87
2022/09/19 05:25:24;;;;;;;31.30;17.20;;;6.90;99.90;;;;;;4408225;28;661082;-85
2022/09/19 05:28:11;;;;;;;42.77;18.57;;;6.90;99.90;;;;;;4390987;28;659766;-85
2022/09/19 05:31:04;;;;;;;36.27;18.77;;;6.90;99.90;;;;;;4414751;28;659992;-85
2022/09/19 05:33:51;;;;;;;33.43;19.30;;;7.00;99.90;;;;;;4386904;28;659997;-85
2022/09/19 05:36:38;;;;;;;35.47;20.87;;;6.80;99.90;;;;;;4409645;28;659731;-86
2022/09/19 05:39:25;;;;;;;37.63;21.40;;;7.00;99.90;;;;;;4387492;28;659762;-86
2022/09/19 05:42:14;;;;;;;35.80;21.37;;;7.00;99.90;;;;;;4414345;28;660680;-86
2022/09/19 05:45:02;;;;;;;35.37;20.57;;;7.00;99.90;;;;;;4387417;28;660726;-85
2022/09/19 05:47:50;;;;;;;33.20;20.40;;;7.10;99.90;;;;;;4407795;28;659179;-85
2022/09/19 05:50:37;;;;;;;29.93;16.70;;;7.10;99.90;;;;;;4388306;28;660966;-85
2022/09/19 05:56:29;;;;;;;45.17;22.67;;;7.00;99.90;;;;;;4390370;28;659791;-82
2022/09/19 05:59:18;;;;;;;39.63;20.23;;;6.90;99.90;;;;;;4392300;28;659706;-82
2022/09/19 06:02:06;;;;;;;33.30;18.97;;;7.00;99.90;;;;;;4387501;28;660416;-84
2022/09/19 06:04:53;;;;;;;39.47;20.27;;;6.90;99.90;;;;;;4409582;28;659953;-82
2022/09/19 06:07:40;;;;;;;41.00;20.33;;;7.00;99.90;;;;;;4384027;28;659745;-82
2022/09/19 06:10:28;;;;;;;39.37;19.83;;;7.10;99.90;;;;;;4409739;28;660227;-82
2022/09/19 06:13:16;;;;;;;44.40;21.13;;;7.20;99.90;;;;;;4388507;28;659538;-82
2022/09/19 06:16:05;;;;;;;38.40;21.03;;;7.20;99.90;;;;;;4404519;28;659851;-83
2022/09/19 06:18:52;;;;;;;38.13;21.63;;;7.20;99.90;;;;;;4383979;28;660172;-83
2022/09/19 06:21:40;;;;;;;45.03;22.53;;;7.20;99.90;;;;;;4400241;28;660016;-83
2022/09/19 06:24:27;;;;;;;37.45;22.17;;;7.20;99.90;;;;;;4409196;28;659930;-85
2022/09/19 06:27:14;;;;;;;41.17;21.50;;;7.40;99.90;;;;;;4407009;28;659819;-87
2022/09/19 06:30:02;;;;;;;38.10;21.50;;;7.30;99.90;;;;;;4383292;28;660028;-85
2022/09/19 06:32:51;;;;;;;44.83;21.03;;;7.20;99.90;;;;;;4408290;28;660256;-86
2022/09/19 06:35:38;;;;;;;40.23;20.23;;;7.40;99.90;;;;;;4381448;28;660503;-86
2022/09/19 06:38:25;;;;;;;31.25;18.15;;;7.70;99.90;;;;;;4391565;28;660184;-86
2022/09/19 06:41:13;;;;;;;32.97;18.80;;;7.80;99.90;;;;;;4408564;28;660198;-86
2022/09/19 06:44:01;;;;;;;31.67;17.42;;;7.80;99.90;;;;;;4389573;28;659852;-86
2022/09/19 06:46:48;;;;;;;38.77;21.47;;;7.80;99.90;;;;;;4406683;28;660177;-86
2022/09/19 06:49:36;;;;;;;35.37;19.17;;;7.70;99.90;;;;;;4387770;28;659755;-85
2022/09/19 06:52:24;;;;;;;38.73;22.50;;;7.90;99.90;;;;;;4406123;28;660619;-86
2022/09/19 06:55:11;;;;;;;34.67;19.47;;;8.00;99.90;;;;;;4385218;28;660143;-85
2022/09/19 06:57:58;;;;;;;33.53;18.70;;;8.10;99.90;;;;;;4409908;28;660409;-86
2022/09/19 07:00:46;;;;;;;30.97;18.20;;;8.50;99.90;;;;;;4378519;28;660071;-86
2022/09/19 07:03:35;;;;;;;23.77;12.93;;;8.80;99.90;;;;;;4409874;28;659659;-85
2022/09/19 07:06:23;;;;;;;23.20;11.80;;;8.60;99.90;;;;;;4380909;28;660618;-85
2022/09/19 07:09:10;;;;;;;26.63;15.20;;;8.40;99.90;;;;;;4386887;28;660130;-85
2022/09/19 07:11:57;;;;;;;24.00;14.63;;;8.30;99.90;;;;;;4410192;28;660928;-88
2022/09/19 07:14:45;;;;;;;20.17;12.93;;;8.20;99.90;;;;;;4396438;28;659957;-85
2022/09/19 07:17:32;;;;;;;22.48;12.05;;;7.70;99.90;;;;;;4408512;28;660412;-86
2022/09/19 07:20:19;;;;;;;21.23;8.23;;;7.70;99.90;;;;;;4408545;28;659493;-84
2022/09/19 07:23:12;;;;;;;20.97;11.80;;;7.60;99.90;;;;;;4383931;28;659087;-85
2022/09/19 07:26:00;;;;;;;23.40;12.27;;;7.50;99.90;;;;;;4380744;28;659501;-85
2022/09/19 07:28:47;;;;;;;21.67;12.07;;;7.50;99.90;;;;;;4381533;28;660521;-85
2022/09/19 07:31:35;;;;;;;20.67;11.60;;;7.50;99.90;;;;;;4398754;28;659906;-86
2022/09/19 07:34:23;;;;;;;24.93;11.67;;;7.50;99.90;;;;;;4406191;28;660500;-85
2022/09/19 07:37:10;;;;;;;22.33;11.93;;;7.60;99.90;;;;;;4395394;28;660084;-85
2022/09/19 07:39:59;;;;;;;24.63;12.57;;;7.70;99.90;;;;;;4409629;28;659511;-86
2022/09/19 07:42:46;;;;;;;22.00;11.97;;;7.80;99.90;;;;;;4388012;28;659400;-87
2022/09/19 07:45:34;;;;;;;24.27;12.10;;;8.20;99.90;;;;;;4406018;28;660049;-87
2022/09/19 07:48:21;;;;;;;23.90;14.17;;;8.50;99.90;;;;;;4381156;28;659618;-85
2022/09/19 07:51:08;;;;;;;22.00;13.57;;;8.30;99.90;;;;;;4403088;28;660472;-86
2022/09/19 07:53:57;;;;;;;22.30;14.17;;;8.30;99.90;;;;;;4384209;28;659475;-85
2022/09/19 07:56:45;;;;;;;26.67;13.60;;;8.40;99.90;;;;;;4400932;28;659767;-85
2022/09/19 07:59:33;;;;;;;23.77;14.17;;;8.40;99.90;;;;;;4378285;28;659846;-86
2022/09/19 08:02:20;;;;;;;21.70;14.13;;;8.50;99.90;;;;;;4402648;28;660308;-86
2022/09/19 08:05:08;;;;;;;22.10;13.30;;;8.50;99.90;;;;;;4405879;28;660181;-85
2022/09/19 08:07:55;;;;;;;20.45;11.98;;;8.60;99.90;;;;;;4389409;28;659832;-85
2022/09/19 08:10:43;;;;;;;19.07;11.60;;;8.80;99.90;;;;;;4400426;28;661414;-85
2022/09/19 08:13:32;;;;;;;18.85;10.10;;;9.10;99.90;;;;;;4391091;28;660502;-86
2022/09/19 08:16:19;;;;;;;19.97;11.83;;;9.40;99.90;;;;;;4406914;28;659301;-86
2022/09/19 08:19:06;;;;;;;17.77;11.93;;;9.50;99.90;;;;;;4376545;28;659821;-87
2022/09/19 08:21:53;;;;;;;14.63;10.67;;;10.10;99.90;;;;;;4403471;28;659556;-88
2022/09/19 08:24:40;;;;;;;13.83;9.47;;;10.80;99.90;;;;;;4378533;28;660493;-86
2022/09/19 08:27:27;;;;;;;15.17;8.53;;;10.60;99.90;;;;;;4408244;28;659737;-87
2022/09/19 08:30:16;;;;;;;12.60;8.70;;;10.10;99.90;;;;;;4408253;28;659994;-88
2022/09/19 08:33:03;;;;;;;14.82;8.65;;;9.60;99.90;;;;;;4389473;28;660767;-86
2022/09/19 08:35:51;;;;;;;16.50;8.80;;;9.40;99.90;;;;;;4382249;28;658516;-86
2022/09/19 08:38:38;;;;;;;7.03;5.03;;;10.10;99.90;;;;;;4406454;28;658503;-86
2022/09/19 08:41:48;;;;;;;13.60;7.77;;;9.50;99.90;;;;;;4391529;28;658863;-86
2022/09/19 08:44:48;;;;;;;8.60;6.50;;;9.30;99.90;;;;;;4374558;28;658892;-85
2022/09/19 08:47:37;;;;;;;12.23;7.80;;;9.30;99.90;;;;;;4388971;28;657952;-86
2022/09/19 08:50:25;;;;;;;11.70;7.67;;;9.50;99.90;;;;;;4409954;28;658899;-86
2022/09/19 08:53:15;;;;;;;13.73;8.80;;;9.50;99.90;;;;;;4387340;28;659056;-86
2022/09/19 08:56:02;;;;;;;14.03;8.70;;;9.80;99.90;;;;;;4379841;28;659352;-87
2022/09/19 08:58:51;;;;;;;13.33;7.70;;;9.60;99.90;;;;;;4411676;28;658759;-85
2022/09/19 09:01:39;;;;;;;14.53;7.20;;;9.20;99.90;;;;;;4387680;28;659409;-86
2022/09/19 09:04:30;;;;;;;15.53;8.57;;;9.30;99.90;;;;;;4385965;28;658715;-86
2022/09/19 09:07:23;;;;;;;12.87;6.87;;;8.80;99.90;;;;;;4382779;28;659075;-86
2022/09/19 09:10:19;;;;;;;11.43;6.73;;;8.90;99.90;;;;;;4361651;28;658917;-86
2022/09/19 09:13:10;;;;;;;12.63;8.20;;;9.10;99.90;;;;;;4387455;28;659140;-86
2022/09/19 09:16:02;;;;;;;7.43;5.23;;;9.60;99.90;;;;;;4386739;28;659406;-86
2022/09/19 09:19:02;;;;;;;12.67;6.80;;;10.10;99.90;;;;;;4385477;28;657748;-86
2022/09/19 09:21:59;;;;;;;12.47;7.27;;;10.40;99.90;;;;;;4398812;28;659528;-86
2022/09/19 09:24:46;;;;;;;8.70;6.00;;;10.90;99.90;;;;;;4385192;28;659665;-87
2022/09/19 09:27:35;;;;;;;5.40;3.47;;;11.20;99.90;;;;;;4408903;28;658726;-86
2022/09/19 09:30:22;;;;;;;3.73;1.67;;;11.70;99.90;;;;;;4386941;28;658756;-86
2022/09/19 09:33:11;;;;;;;4.67;2.07;;;11.60;99.90;;;;;;4413067;28;658265;-88
2022/09/19 09:36:01;;;;;;;7.07;2.83;;;10.60;99.90;;;;;;4386167;28;658821;-86
2022/09/19 09:38:53;;;;;;;3.20;1.80;;;9.80;99.90;;;;;;4382701;28;659094;-85
2022/09/19 09:41:45;;;;;;;6.43;2.23;;;9.70;99.90;;;;;;4388947;28;657363;-87
2022/09/19 09:44:44;;;;;;;9.53;2.27;;;9.60;99.90;;;;;;4391124;28;657765;-84
2022/09/19 09:47:41;;;;;;;4.37;1.47;;;9.80;99.90;;;;;;4389303;28;657908;-85
2022/09/19 09:50:37;;;;;;;4.00;1.50;;;11.00;99.90;;;;;;4387719;28;657656;-87
2022/09/19 09:53:30;;;;;;;5.27;1.20;;;11.70;99.90;;;;;;4390668;28;660488;-87
2022/09/19 09:56:21;;;;;;;3.67;0.80;;;11.60;99.90;;;;;;4390361;28;658995;-86
2022/09/19 10:03:34;;;;;;;2.30;1.20;;;10.70;99.90;;;;;;4388793;28;659101;-86
2022/09/19 10:05:37;;;;;;;1.13;1.03;;;9.70;99.90;;;;;;4388813;28;657830;-86
2022/09/19 10:08:27;;;;;;;1.47;1.20;;;9.70;99.90;;;;;;4385576;28;657945;-86
2022/09/19 10:11:16;;;;;;;0.97;0.87;;;9.90;99.90;;;;;;4388240;28;657974;-86
2022/09/19 10:14:08;;;;;;;1.37;0.97;;;9.90;99.90;;;;;;4388619;28;658044;-86
2022/09/19 10:16:56;;;;;;;1.20;0.73;;;10.60;99.90;;;;;;4387663;28;657498;-86
2022/09/19 10:19:45;;;;;;;1.33;1.10;;;11.10;99.90;;;;;;4408896;28;659731;-86
2022/09/19 10:22:32;;;;;;;2.40;1.30;;;11.40;99.90;;;;;;4392184;28;659547;-87
2022/09/19 10:25:21;;;;;;;2.07;1.00;;;11.60;99.90;;;;;;4405967;28;658558;-85
2022/09/19 10:28:17;;;;;;;4.60;1.30;;;11.10;99.90;;;;;;4411258;28;658683;-85
2022/09/19 10:31:06;;;;;;;1.23;1.10;;;11.60;99.90;;;;;;4387697;28;659231;-86
2022/09/19 10:33:53;;;;;;;3.20;1.17;;;12.10;99.90;;;;;;4388531;28;658754;-85
2022/09/19 10:36:46;;;;;;;3.53;1.27;;;12.30;99.90;;;;;;4388384;28;658644;-85
2022/09/19 10:39:33;;;;;;;1.50;1.00;;;12.40;99.90;;;;;;4384026;28;659061;-84
2022/09/19 10:42:34;;;;;;;0.90;0.50;;;12.30;99.90;;;;;;4390192;28;658645;-85
2022/09/19 10:45:25;;;;;;;3.57;1.00;;;12.30;99.90;;;;;;4388802;28;659564;-86
2022/09/19 10:48:16;;;;;;;1.13;0.97;;;11.50;99.90;;;;;;4387399;28;658757;-86
2022/09/19 10:51:08;;;;;;;1.20;0.87;;;11.70;99.90;;;;;;4386829;28;659252;-86
2022/09/19 10:53:56;;;;;;;2.60;1.30;;;11.60;99.90;;;;;;4391478;28;658615;-85
2022/09/19 10:56:43;;;;;;;3.03;1.43;;;11.80;99.90;;;;;;4402251;28;659418;-85
2022/09/19 10:59:36;;;;;;;4.88;1.70;;;11.60;99.90;;;;;;4384788;28;658577;-86
2022/09/19 11:02:24;;;;;;;8.30;2.73;;;11.90;99.90;;;;;;4385405;28;659088;-85
2022/09/19 11:05:23;;;;;;;7.03;3.23;;;11.40;99.90;;;;;;4379574;28;658815;-85
2022/09/19 11:08:23;;;;;;;7.23;3.77;;;11.40;99.90;;;;;;4387005;28;659882;-85
2022/09/19 11:11:36;;;;;;;18.13;7.90;;;11.00;99.90;;;;;;4385364;28;658301;-86
2022/09/19 11:14:31;;;;;;;5.90;3.93;;;10.60;99.90;;;;;;4384331;28;660139;-85
2022/09/19 11:17:37;;;;;;;4.87;2.33;;;11.20;99.90;;;;;;4378593;28;659312;-86
2022/09/19 11:20:32;;;;;;;8.03;4.03;;;11.30;99.90;;;;;;4388150;28;659051;-85
2022/09/19 11:23:52;;;;;;;5.47;2.88;;;11.00;99.90;;;;;;4381475;28;658751;-84
2022/09/19 11:26:45;;;;;;;4.60;3.20;;;10.10;99.90;;;;;;4368524;28;658650;-85
2022/09/19 11:29:44;;;;;;;1.90;1.60;;;10.40;99.90;;;;;;4380784;28;658769;-85
2022/09/19 11:32:45;;;;;;;6.47;2.87;;;10.60;99.90;;;;;;4387237;28;659262;-87
2022/09/19 11:35:36;;;;;;;5.43;2.80;;;10.40;99.90;;;;;;4385728;28;658871;-86
2022/09/19 11:38:32;;;;;;;6.30;4.20;;;10.20;99.90;;;;;;4387766;28;658743;-85
2022/09/19 11:41:31;;;;;;;6.83;3.50;;;10.20;99.90;;;;;;4390733;28;658281;-85
2022/09/19 11:44:32;;;;;;;4.13;3.10;;;10.50;99.90;;;;;;4383767;28;659129;-85
2022/09/19 11:47:25;;;;;;;6.27;3.00;;;10.80;99.90;;;;;;4388421;28;658746;-86
2022/09/19 11:50:48;;;;;;;3.33;2.70;;;10.30;99.90;;;;;;4387224;28;658796;-83
2022/09/19 11:53:46;;;;;;;4.03;2.63;;;10.30;99.90;;;;;;4394775;28;659045;-84
2022/09/19 11:56:49;;;;;;;4.53;2.57;;;11.00;99.90;;;;;;4386197;28;658917;-83
2022/09/19 11:59:51;;;;;;;2.47;1.67;;;11.40;99.90;;;;;;4385003;28;658681;-83
2022/09/19 12:03:18;;;;;;;4.20;2.10;;;11.30;99.90;;;;;;4387634;28;659220;-83
2022/09/19 12:06:16;;;;;;;10.10;3.17;;;11.50;99.90;;;;;;4369241;28;659086;-84
2022/09/19 12:09:13;;;;;;;7.80;3.00;;;12.60;99.90;;;;;;4378473;28;660368;-85
2022/09/19 12:12:02;;;;;;;6.13;3.53;;;13.50;99.90;;;;;;4371790;28;659235;-84
2022/09/19 12:14:51;;;;;;;6.67;3.30;;;13.50;99.90;;;;;;4406860;28;658614;-84
2022/09/19 12:17:42;;;;;;;9.13;2.80;;;13.20;99.90;;;;;;4383797;28;658940;-84
2022/09/19 12:20:32;;;;;;;5.00;3.03;;;12.50;99.90;;;;;;4385826;28;658334;-85
2022/09/19 12:26:29;;;;;;;4.37;1.87;;;11.00;99.90;;;;;;4366203;28;658938;-84
2022/09/19 12:29:19;;;;;;;2.63;1.67;;;10.40;99.90;;;;;;4383905;28;658731;-85
2022/09/19 12:32:13;;;;;;;1.60;1.17;;;10.60;99.90;;;;;;4385354;28;658384;-84
2022/09/19 12:35:04;;;;;;;2.00;0.90;;;11.20;99.90;;;;;;4370805;28;658772;-83
2022/09/19 12:37:57;;;;;;;0.70;0.70;;;11.70;99.90;;;;;;4383999;28;659180;-84
2022/09/19 12:40:47;;;;;;;0.93;0.77;;;12.00;99.90;;;;;;4403084;28;658809;-85
2022/09/19 12:43:39;;;;;;;4.37;1.20;;;12.30;99.90;;;;;;4411887;28;658635;-84
2022/09/19 12:46:34;;;;;;;2.77;1.40;;;12.30;99.90;;;;;;4387637;28;659254;-84
2022/09/19 12:49:28;;;;;;;2.63;1.30;;;12.20;99.90;;;;;;4385268;28;658640;-84
2022/09/19 12:52:18;;;;;;;3.33;1.40;;;12.60;99.90;;;;;;4385933;28;658924;-84
2022/09/19 12:55:10;;;;;;;4.97;1.50;;;12.70;99.90;;;;;;4386546;28;658997;-84
2022/09/19 12:57:59;;;;;;;3.60;1.70;;;12.50;99.90;;;;;;4381199;28;658676;-84
2022/09/19 13:00:47;;;;;;;2.83;1.43;;;11.80;99.90;;;;;;4385451;28;658748;-83
2022/09/19 13:03:36;;;;;;;5.00;1.07;;;11.30;99.90;;;;;;4411542;28;658671;-83
2022/09/19 13:06:25;;;;;;;5.27;2.50;;;11.10;99.90;;;;;;4385288;28;659733;-84
2022/09/19 13:09:15;;;;;;;5.50;2.67;;;10.60;99.90;;;;;;4388678;28;658800;-83
2022/09/19 13:12:06;;;;;;;4.33;2.33;;;10.40;99.90;;;;;;4383998;28;659946;-84
2022/09/19 13:14:55;;;;;;;4.40;2.40;;;10.20;99.90;;;;;;4387677;28;659369;-84
2022/09/19 13:23:57;;;;;;;2.60;1.50;;;10.10;99.90;;;;;;4382484;28;657602;-84
2022/09/19 13:26:44;;;;;;;3.67;1.70;;;10.80;99.90;;;;;;4382517;28;658829;-83
2022/09/19 13:29:45;;;;;;;2.23;1.53;;;11.40;99.90;;;;;;4392538;28;659077;-84
2022/09/19 13:32:53;;;;;;;3.47;1.67;;;11.40;99.90;;;;;;4389404;28;659019;-84
2022/09/19 13:35:48;;;;;;;3.83;1.87;;;10.90;99.90;;;;;;4366307;28;659029;-83
2022/09/19 13:38:38;;;;;;;2.40;1.50;;;10.60;99.90;;;;;;4388776;28;658844;-83
2022/09/19 13:41:27;;;;;;;5.53;1.90;;;10.60;99.90;;;;;;4398050;28;659243;-84
2022/09/19 13:44:17;;;;;;;3.37;1.67;;;10.40;99.90;;;;;;4412130;28;658748;-84
2022/09/19 13:47:07;;;;;;;3.93;1.77;;;10.00;99.90;;;;;;4386465;28;658979;-84
2022/09/19 13:49:58;;;;;;;1.93;1.40;;;9.90;99.90;;;;;;4386457;28;658828;-84
2022/09/19 13:52:46;;;;;;;1.43;1.10;;;9.90;99.90;;;;;;4373364;28;657907;-84
2022/09/19 13:55:35;;;;;;;4.00;2.00;;;9.80;99.90;;;;;;4406768;28;658066;-83
2022/09/19 13:58:30;;;;;;;6.60;1.90;;;9.60;99.90;;;;;;4388247;28;657608;-84
2022/09/19 14:01:21;;;;;;;5.23;1.80;;;9.60;99.90;;;;;;4389541;28;658127;-83
2022/09/19 14:07:26;;;;;;;3.07;2.00;;;9.40;99.90;;;;;;4390075;28;658010;-84
2022/09/19 14:10:19;;;;;;;4.60;2.08;;;9.40;99.90;;;;;;4386894;28;658768;-84
2022/09/19 14:13:37;;;;;;;4.33;2.30;;;9.70;99.90;;;;;;4389227;28;659012;-84
2022/09/19 14:16:36;;;;;;;4.57;2.13;;;9.70;99.90;;;;;;4386049;28;658257;-84
2022/09/19 14:19:43;;;;;;;5.63;2.17;;;9.80;99.90;;;;;;4391104;28;658245;-83
2022/09/19 14:22:44;;;;;;;4.10;2.70;;;10.10;99.90;;;;;;4390565;28;658212;-84
2022/09/19 14:25:31;;;;;;;4.30;2.87;;;10.10;99.90;;;;;;4388934;28;658482;-84
2022/09/19 14:28:39;;;;;;;7.00;3.10;;;10.10;99.90;;;;;;4408068;28;658897;-84
2022/09/19 14:31:33;;;;;;;10.13;3.20;;;10.30;99.90;;;;;;4385064;28;658875;-84
2022/09/19 14:34:35;;;;;;;6.73;3.37;;;10.60;99.90;;;;;;4374901;28;659966;-84
2022/09/19 14:37:43;;;;;;;8.97;3.90;;;10.80;99.90;;;;;;4386084;28;658902;-85
2022/09/19 14:40:37;;;;;;;5.17;3.43;;;11.30;99.90;;;;;;4371464;28;659035;-84
2022/09/19 14:44:18;;;;;;;9.23;4.30;;;12.00;99.90;;;;;;4388464;28;658896;-84
2022/09/19 14:47:06;;;;;;;9.00;4.30;;;12.50;99.90;;;;;;4363667;28;658892;-85
2022/09/19 14:49:57;;;;;;;9.23;4.27;;;13.00;99.90;;;;;;4404801;28;658996;-85
2022/09/19 14:52:44;;;;;;;6.40;4.07;;;13.10;99.90;;;;;;4383653;28;658237;-84
2022/09/19 14:55:41;;;;;;;8.73;3.00;;;13.00;99.90;;;;;;4387930;28;658574;-85
2022/09/19 14:58:29;;;;;;;6.23;2.70;;;14.10;99.90;;;;;;4387946;28;659314;-84
2022/09/19 15:01:18;;;;;;;5.83;2.87;;;13.40;99.90;;;;;;4382577;28;658796;-85
2022/09/19 15:04:13;;;;;;;4.50;2.63;;;14.00;99.90;;;;;;4386897;28;658423;-86
2022/09/19 15:07:01;;;;;;;10.10;3.07;;;14.80;99.90;;;;;;4386719;28;658432;-85